| time (UTC) | temp F | wind direction | speed knots | gust knots | rain 1hr in | rain 24hr in | rain mn in | humidity % | barometer mb |
| 20260507154552 | 61 | 288 | 10.4 | 16.5 | 0.00 | 0.00 | 0.00 | 38 | 1011.2 |
| 20260507153051 | 60 | 286 | 7.0 | 14.8 | 0.00 | 0.00 | 0.00 | 39 | 1011.2 |
| 20260507151544 | 59 | 360 | 8.7 | 16.5 | 0.00 | 0.00 | 0.00 | 41 | 1011.4 |
| 20260507150040 | 58 | 310 | 10.4 | 14.8 | 0.00 | 0.00 | 0.00 | 42 | 1011.3 |
| 20260507144536 | 55 | 281 | 7.8 | 13.0 | 0.00 | 0.00 | 0.00 | 49 | 1011.4 |
| 20260507143032 | 51 | 360 | 4.3 | 7.0 | 0.00 | 0.00 | 0.00 | 59 | 1011.4 |
| 20260507141527 | 48 | 290 | 2.6 | 5.2 | 0.00 | 0.00 | 0.00 | 62 | 1011.5 |
| 20260507140024 | 46 | 234 | 1.7 | 4.3 | 0.00 | 0.00 | 0.00 | 62 | 1011.5 |
| 20260507134522 | 46 | 213 | 0.9 | 2.6 | 0.00 | 0.00 | 0.00 | 62 | 1011.5 |
| 20260507133016 | 44 | 213 | 0.0 | 1.7 | 0.00 | 0.00 | 0.00 | 69 | 1011.5 |
| 20260507131514 | 42 | 213 | 0.0 | 1.7 | 0.00 | 0.00 | 0.00 | 73 | 1011.4 |
| 20260507130013 | 41 | 213 | 0.9 | 3.5 | 0.00 | 0.00 | 0.00 | 76 | 1011.1 |
| 20260507124511 | 39 | 213 | 0.9 | 2.6 | 0.00 | 0.00 | 0.00 | 78 | 1011.1 |
| 20260507123011 | 38 | 213 | 0.0 | 1.7 | 0.00 | 0.00 | 0.00 | 81 | 1011.0 |
| 20260507121507 | 35 | 213 | 0.9 | 1.7 | 0.00 | 0.00 | 0.00 | 81 | 1011.0 |
| 20260507120032 | 35 | 216 | 0.0 | 1.7 | 0.00 | 0.00 | 0.00 | 80 | 1010.8 |
| 20260507114606 | 35 | 216 | 0.0 | 1.7 | 0.00 | 0.00 | 0.00 | 79 | 1010.8 |
| 20260507113056 | 36 | 216 | 0.0 | 1.7 | 0.00 | 0.00 | 0.00 | 79 | 1010.5 |
| 20260507111556 | 36 | 216 | 0.0 | 0.9 | 0.00 | 0.00 | 0.00 | 79 | 1010.5 |
| 20260507110054 | 36 | 216 | 0.0 | 0.0 | 0.00 | 0.00 | 0.00 | 78 | 1010.6 |
| 20260507104553 | 36 | 216 | 0.0 | 1.7 | 0.00 | 0.00 | 0.00 | 77 | 1010.7 |
| 20260507103054 | 36 | 216 | 0.0 | 0.0 | 0.00 | 0.00 | 0.00 | 75 | 1010.5 |
| 20260507101549 | 37 | 216 | 1.7 | 2.6 | 0.00 | 0.00 | 0.00 | 73 | 1010.5 |
| 20260507100044 | 39 | 216 | 0.9 | 2.6 | 0.00 | 0.00 | 0.00 | 71 | 1010.8 |
| 20260507094542 | 40 | 216 | 0.0 | 1.7 | 0.00 | 0.00 | 0.00 | 69 | 1010.7 |
| 20260507093042 | 39 | 216 | 0.9 | 2.6 | 0.00 | 0.00 | 0.00 | 70 | 1010.7 |
| 20260507091540 | 39 | 216 | 0.0 | 2.6 | 0.00 | 0.00 | 0.00 | 69 | 1011.0 |
| 20260507090041 | 40 | 216 | 0.9 | 2.6 | 0.00 | 0.00 | 0.00 | 68 | 1011.1 |
| 20260507084534 | 41 | 216 | 0.0 | 0.9 | 0.00 | 0.00 | 0.00 | 66 | 1011.1 |
| 20260507083038 | 41 | 216 | 0.0 | 0.9 | 0.00 | 0.00 | 0.00 | 65 | 1011.1 |
| 20260507081531 | 42 | 216 | 0.0 | 1.7 | 0.00 | 0.00 | 0.00 | 65 | 1011.6 |
| 20260507080029 | 42 | 216 | 0.0 | 0.9 | 0.00 | 0.00 | 0.00 | 64 | 1011.7 |
| 20260507074529 | 42 | 216 | 0.0 | 3.5 | 0.00 | 0.00 | 0.00 | 64 | 1011.9 |
| 20260507073026 | 42 | 217 | 1.7 | 7.0 | 0.00 | 0.00 | 0.00 | 65 | 1012.2 |
| 20260507071531 | 42 | 277 | 1.7 | 4.3 | 0.00 | 0.00 | 0.00 | 65 | 1012.3 |
| 20260507070024 | 42 | 279 | 0.9 | 2.6 | 0.00 | 0.00 | 0.00 | 66 | 1012.4 |
| 20260507064522 | 43 | 279 | 2.6 | 6.1 | 0.00 | 0.00 | 0.00 | 66 | 1012.5 |
| 20260507063021 | 43 | 294 | 0.9 | 4.3 | 0.00 | 0.00 | 0.00 | 67 | 1012.7 |
| 20260507061520 | 43 | 296 | 1.7 | 4.3 | 0.00 | 0.00 | 0.00 | 66 | 1012.8 |
| 20260507060018 | 44 | 281 | 1.7 | 6.1 | 0.00 | 0.00 | 0.00 | 65 | 1012.9 |
| 20260507054517 | 44 | 262 | 3.5 | 7.8 | 0.00 | 0.00 | 0.00 | 66 | 1013.2 |
| 20260507053016 | 43 | 272 | 0.0 | 4.3 | 0.00 | 0.00 | 0.00 | 65 | 1013.3 |
| 20260507051516 | 44 | 225 | 0.9 | 11.3 | 0.00 | 0.00 | 0.00 | 64 | 1013.4 |
| 20260507050014 | 44 | 200 | 5.2 | 11.3 | 0.00 | 0.00 | 0.00 | 63 | 1013.5 |
| 20260507044513 | 45 | 233 | 4.3 | 12.2 | 0.00 | 0.00 | 0.00 | 61 | 1013.5 |
| 20260507043013 | 45 | 223 | 5.2 | 10.4 | 0.00 | 0.00 | 0.00 | 59 | 1013.6 |
| 20260507041512 | 45 | 225 | 4.3 | 12.2 | 0.00 | 0.00 | 0.00 | 55 | 1013.7 |
| 20260507040013 | 46 | 221 | 5.2 | 12.2 | 0.00 | 0.00 | 0.00 | 53 | 1013.9 |
| 20260507034512 | 46 | 239 | 6.1 | 10.4 | 0.00 | 0.00 | 0.00 | 52 | 1014.1 |
| 20260507033010 | 46 | 236 | 4.3 | 8.7 | 0.00 | 0.00 | 0.00 | 51 | 1014.1 |
| 20260507031509 | 46 | 232 | 4.3 | 9.6 | 0.00 | 0.00 | 0.00 | 51 | 1014.2 |
| 20260507030011 | 47 | 225 | 3.5 | 6.1 | 0.00 | 0.00 | 0.00 | 49 | 1014.3 |
| 20260507024508 | 47 | 227 | 2.6 | 6.1 | 0.00 | 0.00 | 0.00 | 48 | 1014.4 |
| 20260507023007 | 49 | 223 | 2.6 | 7.0 | 0.00 | 0.00 | 0.00 | 46 | 1014.3 |
| 20260507021511 | 49 | 217 | 3.5 | 11.3 | 0.00 | 0.00 | 0.00 | 44 | 1014.3 |
| 20260507020006 | 50 | 217 | 2.6 | 7.8 | 0.00 | 0.00 | 0.00 | 43 | 1014.3 |
| 20260507014507 | 52 | 219 | 3.5 | 8.7 | 0.00 | 0.00 | 0.00 | 40 | 1014.4 |
| 20260507013005 | 54 | 219 | 2.6 | 7.0 | 0.00 | 0.00 | 0.00 | 35 | 1014.5 |
| 20260507011504 | 55 | 223 | 2.6 | 9.6 | 0.00 | 0.00 | 0.00 | 34 | 1014.7 |
| 20260507010003 | 55 | 256 | 0.9 | 8.7 | 0.00 | 0.00 | 0.00 | 33 | 1014.7 |
| 20260507004502 | 55 | 322 | 3.5 | 9.6 | 0.00 | 0.00 | 0.00 | 30 | 1014.7 |
| 20260507003005 | 55 | 248 | 6.1 | 11.3 | 0.00 | 0.00 | 0.00 | 30 | 1014.9 |
| 20260507001501 | 54 | 360 | 4.3 | 10.4 | 0.00 | 0.00 | 0.00 | 31 | 1015.1 |
| 20260506234603 | 55 | 293 | 8.7 | 12.2 | 0.00 | 0.00 | 0.00 | 29 | 1015.3 |
| 20260506233057 | 55 | 277 | 6.1 | 13.0 | 0.00 | 0.00 | 0.00 | 30 | 1015.5 |
| 20260506231554 | 53 | 290 | 6.1 | 10.4 | 0.00 | 0.00 | 0.00 | 31 | 1015.7 |
| 20260506230054 | 53 | 287 | 5.2 | 11.3 | 0.00 | 0.00 | 0.00 | 32 | 1015.8 |
| 20260506224552 | 53 | 279 | 6.1 | 10.4 | 0.00 | 0.00 | 0.00 | 31 | 1015.9 |
| 20260506223053 | 53 | 287 | 4.3 | 10.4 | 0.00 | 0.00 | 0.00 | 33 | 1016.2 |
| 20260506221550 | 53 | 291 | 2.6 | 9.6 | 0.00 | 0.00 | 0.00 | 32 | 1016.4 |
| 20260506220058 | 54 | 284 | 2.6 | 10.4 | 0.00 | 0.00 | 0.00 | 32 | 1016.5 |
| 20260506214548 | 53 | 295 | 4.3 | 9.6 | 0.00 | 0.00 | 0.00 | 33 | 1016.8 |
| 20260506213046 | 53 | 283 | 4.3 | 13.9 | 0.00 | 0.00 | 0.00 | 33 | 1017.1 |
| 20260506211546 | 52 | 281 | 5.2 | 10.4 | 0.00 | 0.00 | 0.00 | 34 | 1017.3 |
| 20260506210048 | 53 | 284 | 3.5 | 8.7 | 0.00 | 0.00 | 0.00 | 33 | 1017.6 |
| 20260506204543 | 53 | 220 | 6.1 | 10.4 | 0.00 | 0.00 | 0.00 | 33 | 1018.0 |
| 20260506203117 | 51 | 282 | 4.3 | 11.3 | 0.00 | 0.00 | 0.00 | 37 | 1018.3 |
| 20260506201541 | 50 | 286 | 5.2 | 13.9 | 0.00 | 0.00 | 0.00 | 37 | 1018.5 |
| 20260506200046 | 50 | 251 | 4.3 | 14.8 | 0.00 | 0.00 | 0.00 | 36 | 1018.7 |
| 20260506194538 | 50 | 256 | 2.6 | 12.2 | 0.00 | 0.00 | 0.00 | 38 | 1019.0 |
| 20260506193036 | 50 | 277 | 4.3 | 12.2 | 0.00 | 0.00 | 0.00 | 39 | 1019.1 |
| 20260506191536 | 49 | 360 | 7.0 | 13.0 | 0.00 | 0.00 | 0.00 | 38 | 1019.1 |
| 20260506190044 | 49 | 297 | 5.2 | 10.4 | 0.00 | 0.00 | 0.00 | 39 | 1019.4 |
| 20260506184532 | 48 | 360 | 6.1 | 11.3 | 0.00 | 0.00 | 0.00 | 38 | 1019.4 |
| 20260506183030 | 49 | 234 | 2.6 | 7.8 | 0.00 | 0.00 | 0.00 | 41 | 1019.7 |
| 20260506181527 | 48 | 355 | 2.6 | 7.0 | 0.00 | 0.00 | 0.00 | 43 | 1019.7 |
| 20260506180024 | 47 | 298 | 6.1 | 9.6 | 0.00 | 0.00 | 0.00 | 42 | 1019.9 |
| 20260506174522 | 47 | 284 | 4.3 | 12.2 | 0.00 | 0.00 | 0.00 | 43 | 1019.9 |
| 20260506173021 | 46 | 340 | 4.3 | 8.7 | 0.00 | 0.00 | 0.00 | 45 | 1020.1 |
| 20260506171517 | 45 | 360 | 2.6 | 13.0 | 0.00 | 0.00 | 0.00 | 44 | 1020.3 |
| 20260506170012 | 45 | 360 | 1.7 | 8.7 | 0.00 | 0.00 | 0.00 | 45 | 1020.2 |
| 20260506164514 | 45 | 293 | 2.6 | 7.8 | 0.00 | 0.00 | 0.00 | 44 | 1020.3 |
| 20260506163017 | 44 | 286 | 4.3 | 9.6 | 0.00 | 0.00 | 0.00 | 47 | 1020.3 |
| 20260506161512 | 44 | 290 | 2.6 | 9.6 | 0.00 | 0.00 | 0.00 | 44 | 1020.3 |
| 20260506160006 | 44 | 360 | 0.9 | 5.2 | 0.00 | 0.00 | 0.00 | 46 | 1020.3 |